createdAt,value
2019-06-01T00:02:09.916Z,18.90
2019-06-01T00:04:39.204Z,18.90
2019-06-01T00:07:10.462Z,18.90
2019-06-01T00:09:40.980Z,18.90
2019-06-01T00:12:10.265Z,18.80
2019-06-01T00:14:39.682Z,18.80
2019-06-01T00:17:09.106Z,18.80
2019-06-01T00:19:38.349Z,18.70
2019-06-01T00:22:07.631Z,18.70
2019-06-01T00:24:36.892Z,18.60
2019-06-01T00:27:06.120Z,18.60
2019-06-01T00:29:35.326Z,18.50
2019-06-01T00:32:10.572Z,18.40
2019-06-01T00:34:41.188Z,18.40
2019-06-01T00:37:10.528Z,18.30
2019-06-01T00:39:39.662Z,18.30
2019-06-01T00:42:09.195Z,18.30
2019-06-01T00:44:38.390Z,18.20
2019-06-01T00:47:07.682Z,18.20
2019-06-01T00:49:36.834Z,18.20
2019-06-01T00:52:06.099Z,18.10
2019-06-01T00:54:35.604Z,18.00
2019-06-01T00:57:04.850Z,17.90
2019-06-01T00:59:34.224Z,17.90
2019-06-01T01:02:03.473Z,17.90
2019-06-01T01:04:32.780Z,17.90
2019-06-01T01:07:02.019Z,17.80
2019-06-01T01:09:31.274Z,17.80
2019-06-01T01:12:00.459Z,17.90
2019-06-01T01:14:29.694Z,17.90
2019-06-01T01:16:59.090Z,17.80
2019-06-01T01:19:28.369Z,17.80
2019-06-01T01:21:59.185Z,17.70
2019-06-01T01:24:28.543Z,17.70
2019-06-01T01:26:57.810Z,17.70
2019-06-01T01:29:27.083Z,17.60
2019-06-01T01:31:57.365Z,17.60
2019-06-01T01:34:26.758Z,17.40
2019-06-01T01:36:56.136Z,17.40
2019-06-01T01:39:25.419Z,17.50
2019-06-01T01:41:54.933Z,17.40
2019-06-01T01:44:24.341Z,17.30
2019-06-01T01:46:54.774Z,17.30
2019-06-01T01:49:24.201Z,17.30
2019-06-01T01:51:53.474Z,17.20
2019-06-01T01:54:22.686Z,17.30
2019-06-01T01:56:52.203Z,17.10
2019-06-01T01:59:21.566Z,17.00
2019-06-01T02:01:50.926Z,16.80
2019-06-01T02:04:20.288Z,16.80
2019-06-01T02:06:49.501Z,16.90
2019-06-01T02:09:18.893Z,16.60
2019-06-01T02:11:48.177Z,16.50
2019-06-01T02:14:17.408Z,16.50
2019-06-01T02:16:46.877Z,16.50
2019-06-01T02:19:16.067Z,16.40
2019-06-01T02:21:45.260Z,16.50
2019-06-01T02:24:14.442Z,16.60
2019-06-01T02:26:43.702Z,16.50
2019-06-01T02:29:14.290Z,16.40
2019-06-01T02:31:43.578Z,16.40
2019-06-01T02:34:12.809Z,16.40
2019-06-01T02:36:41.994Z,16.40
2019-06-01T02:39:13.241Z,16.40
2019-06-01T02:41:42.496Z,16.50
2019-06-01T02:44:11.702Z,16.40
2019-06-01T02:49:09.835Z,16.70
2019-06-01T02:51:39.091Z,16.60
2019-06-01T02:54:08.319Z,16.60
2019-06-01T02:56:37.511Z,16.50
2019-06-01T02:59:06.902Z,16.70
2019-06-01T03:01:37.688Z,16.70
2019-06-01T03:04:09.729Z,16.80
2019-06-01T03:06:46.050Z,16.80
2019-06-01T03:09:19.055Z,16.90
2019-06-01T03:11:50.320Z,16.70
2019-06-01T03:14:20.624Z,16.60
2019-06-01T03:16:51.748Z,16.40
2019-06-01T03:19:23.106Z,16.50
2019-06-01T03:21:54.098Z,16.50
2019-06-01T03:24:26.213Z,16.50
2019-06-01T03:26:56.272Z,16.50
2019-06-01T03:29:28.629Z,16.50
2019-06-01T03:32:19.248Z,16.50
2019-06-01T03:34:28.890Z,16.60
2019-06-01T03:36:58.315Z,16.40
2019-06-01T03:39:28.343Z,16.50
2019-06-01T03:41:57.664Z,16.60
2019-06-01T03:44:26.843Z,16.50
2019-06-01T03:46:56.056Z,16.40
2019-06-01T03:49:25.430Z,16.40
2019-06-01T03:51:57.906Z,16.40
2019-06-01T03:54:27.152Z,16.30
2019-06-01T03:56:56.388Z,16.40
2019-06-01T03:59:25.795Z,16.20
2019-06-01T04:01:55.102Z,16.50
2019-06-01T04:04:24.430Z,16.50
2019-06-01T04:06:53.839Z,16.40
2019-06-01T04:09:23.273Z,16.50
2019-06-01T04:11:59.711Z,16.50
2019-06-01T04:14:28.958Z,16.70
2019-06-01T04:16:58.243Z,16.80
2019-06-01T04:19:27.501Z,16.80
2019-06-01T04:21:56.718Z,16.80
2019-06-01T04:24:25.977Z,16.70
2019-06-01T04:26:55.235Z,16.80
2019-06-01T04:29:24.503Z,16.80
2019-06-01T04:31:56.938Z,16.90
2019-06-01T04:34:26.241Z,16.90
2019-06-01T04:36:55.450Z,16.90
2019-06-01T04:39:24.703Z,16.80
2019-06-01T04:41:53.960Z,16.90
2019-06-01T04:44:23.344Z,16.90
2019-06-01T04:46:52.975Z,16.80
2019-06-01T04:49:22.256Z,16.90
2019-06-01T04:51:51.715Z,16.80
2019-06-01T04:54:20.927Z,16.90
2019-06-01T04:56:50.216Z,16.90
2019-06-01T04:59:19.467Z,16.90
2019-06-01T05:01:48.737Z,17.00
2019-06-01T05:04:18.087Z,17.10
2019-06-01T05:06:47.395Z,17.10
2019-06-01T05:09:16.688Z,17.10
2019-06-01T05:11:46.010Z,17.10
2019-06-01T05:14:16.672Z,17.10
2019-06-01T05:16:46.028Z,17.20
2019-06-01T05:19:16.647Z,17.20
2019-06-01T05:21:46.066Z,17.30
2019-06-01T05:24:15.355Z,17.30
2019-06-01T05:26:44.724Z,17.30
2019-06-01T05:29:15.546Z,17.40
2019-06-01T05:31:45.030Z,17.40
2019-06-01T05:34:14.358Z,17.50
2019-06-01T05:36:43.695Z,17.50
2019-06-01T05:39:14.380Z,17.60
2019-06-01T05:41:43.752Z,17.70
2019-06-01T05:44:14.633Z,17.80
2019-06-01T05:46:44.660Z,17.80
2019-06-01T05:49:14.708Z,17.90
2019-06-01T05:51:43.938Z,17.90
2019-06-01T05:54:14.588Z,18.00
2019-06-01T05:56:43.813Z,18.00
2019-06-01T05:59:13.911Z,18.10
2019-06-01T06:01:43.395Z,18.20
2019-06-01T06:04:13.395Z,18.50
2019-06-01T06:06:42.851Z,18.80
2019-06-01T06:09:13.294Z,18.80
2019-06-01T06:11:42.598Z,18.80
2019-06-01T06:14:11.800Z,19.30
2019-06-01T06:16:41.029Z,19.70
2019-06-01T06:19:10.309Z,19.60
2019-06-01T06:21:39.603Z,19.80
2019-06-01T06:24:08.845Z,20.10
2019-06-01T06:26:38.078Z,19.20
2019-06-01T06:29:07.346Z,20.10
2019-06-01T06:31:36.578Z,19.90
2019-06-01T06:34:06.283Z,20.30
2019-06-01T06:36:35.587Z,20.40
2019-06-01T06:39:07.398Z,19.50
2019-06-01T06:41:36.694Z,19.90
2019-06-01T06:44:05.934Z,20.40
2019-06-01T06:46:35.145Z,20.80
2019-06-01T06:49:04.658Z,20.10
2019-06-01T06:51:34.046Z,20.60
2019-06-01T06:54:04.430Z,20.20
2019-06-01T06:59:11.714Z,21.50
2019-06-01T07:01:40.056Z,21.50
2019-06-01T07:04:12.633Z,21.70
2019-06-01T07:06:40.372Z,22.10
2019-06-01T07:09:09.791Z,22.80
2019-06-01T07:11:39.237Z,22.70
2019-06-01T07:14:08.627Z,23.00
2019-06-01T07:16:37.978Z,23.00
2019-06-01T07:19:07.350Z,22.60
2019-06-01T07:21:36.910Z,20.60
2019-06-01T07:24:06.123Z,21.10
2019-06-01T07:26:35.430Z,22.80
2019-06-01T07:29:04.770Z,23.20
2019-06-01T07:31:34.153Z,24.10
2019-06-01T07:34:03.530Z,23.30
2019-06-01T07:36:32.860Z,23.80
2019-06-01T07:39:03.094Z,23.60
2019-06-01T07:41:33.146Z,24.20
2019-06-01T07:44:02.571Z,24.00
2019-06-01T07:46:33.240Z,23.10
2019-06-01T07:49:02.579Z,23.40
2019-06-01T07:51:31.983Z,23.60
2019-06-01T07:54:01.374Z,25.20
2019-06-01T07:56:30.708Z,25.20
2019-06-01T07:59:00.308Z,25.80
2019-06-01T08:01:30.914Z,25.30
2019-06-01T08:04:00.723Z,25.80
2019-06-01T08:06:32.487Z,25.60
2019-06-01T08:09:00.976Z,25.80
2019-06-01T08:11:33.461Z,25.90
2019-06-01T08:14:01.370Z,26.70
2019-06-01T08:16:31.934Z,26.70
2019-06-01T08:19:02.128Z,27.30
2019-06-01T08:21:32.360Z,27.00
2019-06-01T08:24:02.084Z,27.40
2019-06-01T08:26:32.685Z,27.50
2019-06-01T08:29:02.306Z,25.30
2019-06-01T08:31:33.556Z,25.90
2019-06-01T08:34:03.025Z,26.50
2019-06-01T08:36:33.881Z,26.80
2019-06-01T08:39:04.948Z,27.10
2019-06-01T08:41:34.353Z,27.90
2019-06-01T08:44:03.658Z,27.60
2019-06-01T08:46:33.946Z,28.50
2019-06-01T08:49:03.776Z,28.50
2019-06-01T08:51:34.140Z,28.60
2019-06-01T08:54:03.601Z,28.60
2019-06-01T08:56:34.460Z,25.90
2019-06-01T08:59:04.226Z,26.50
2019-06-01T09:01:34.921Z,27.90
2019-06-01T09:04:04.523Z,28.70
2019-06-01T09:06:35.242Z,28.00
2019-06-01T09:09:06.343Z,28.00
2019-06-01T09:11:36.038Z,28.30
2019-06-01T09:14:05.510Z,27.20
2019-06-01T09:16:36.032Z,28.30
2019-06-01T09:19:05.691Z,26.80
2019-06-01T09:21:35.679Z,27.80
2019-06-01T09:24:04.981Z,28.70
2019-06-01T09:26:34.250Z,27.70
2019-06-01T09:29:03.477Z,27.80
2019-06-01T09:31:34.271Z,27.10
2019-06-01T09:34:03.742Z,28.10
2019-06-01T09:36:33.034Z,28.70
2019-06-01T09:39:02.275Z,29.70
2019-06-01T09:41:32.489Z,29.90
2019-06-01T09:44:01.897Z,29.10
2019-06-01T09:46:32.271Z,30.00
2019-06-01T09:49:02.514Z,30.70
2019-06-01T09:51:31.896Z,29.40
2019-06-01T09:54:01.188Z,30.20
2019-06-01T09:56:31.731Z,30.60
2019-06-01T09:59:02.014Z,29.10
2019-06-01T10:01:32.374Z,29.80
2019-06-01T10:04:01.783Z,29.00
2019-06-01T10:06:32.439Z,28.90
2019-06-01T10:09:01.983Z,30.70
2019-06-01T10:11:32.499Z,30.10
2019-06-01T10:14:02.200Z,31.00
2019-06-01T10:16:32.706Z,30.80
2019-06-01T10:19:04.167Z,30.10
2019-06-01T10:21:33.928Z,31.00
2019-06-01T10:24:03.340Z,31.40
2019-06-01T10:26:34.078Z,31.90
2019-06-01T10:29:03.675Z,32.10
2019-06-01T10:31:32.966Z,30.90
2019-06-01T10:34:02.446Z,31.60
2019-06-01T10:36:31.960Z,31.60
2019-06-01T10:39:01.546Z,32.40
2019-06-01T10:41:31.270Z,32.80
2019-06-01T10:44:00.607Z,32.30
2019-06-01T10:46:31.711Z,32.80
2019-06-01T10:49:01.348Z,33.30
2019-06-01T10:51:31.942Z,33.30
2019-06-01T10:54:04.733Z,33.40
2019-06-01T10:56:34.539Z,33.50
2019-06-01T10:59:04.758Z,33.00
2019-06-01T11:01:36.416Z,32.60
2019-06-01T11:04:07.998Z,33.40
2019-06-01T11:06:44.988Z,29.00
2019-06-01T11:09:10.938Z,29.80
2019-06-01T11:11:41.157Z,30.70
2019-06-01T11:14:10.597Z,32.90
2019-06-01T11:16:41.737Z,33.80
2019-06-01T11:19:13.501Z,31.80
2019-06-01T11:21:43.790Z,31.20
2019-06-01T11:24:13.542Z,33.10
2019-06-01T11:26:43.870Z,33.40
2019-06-01T11:29:13.732Z,33.80
2019-06-01T11:31:44.224Z,31.10
2019-06-01T11:34:13.681Z,32.30
2019-06-01T11:37:03.695Z,33.10
2019-06-01T11:39:14.104Z,33.30
2019-06-01T11:41:44.671Z,34.20
2019-06-01T11:44:14.448Z,32.30
2019-06-01T11:46:45.142Z,33.50
2019-06-01T11:49:30.693Z,34.30
2019-06-01T11:52:00.381Z,34.70
2019-06-01T11:54:29.751Z,35.10
2019-06-01T11:56:59.217Z,35.10
2019-06-01T11:59:28.646Z,30.60
2019-06-01T12:01:58.063Z,33.20
2019-06-01T12:04:27.502Z,33.00
2019-06-01T12:07:15.720Z,32.50
2019-06-01T12:09:28.399Z,34.20
2019-06-01T12:11:57.891Z,34.90
2019-06-01T12:14:27.339Z,35.90
2019-06-01T12:16:56.720Z,34.50
2019-06-01T12:19:26.051Z,35.40
2019-06-01T12:21:55.414Z,35.80
2019-06-01T12:24:28.910Z,34.00
2019-06-01T12:26:58.333Z,32.30
2019-06-01T12:29:27.628Z,34.50
2019-06-01T12:31:57.224Z,35.60
2019-06-01T12:34:26.788Z,36.10
2019-06-01T12:36:56.219Z,31.60
2019-06-01T12:39:25.517Z,32.30
2019-06-01T12:41:54.874Z,31.50
2019-06-01T12:44:24.264Z,33.10
2019-06-01T12:46:53.974Z,34.40
2019-06-01T12:49:23.386Z,29.60
2019-06-01T12:51:53.115Z,31.60
2019-06-01T12:54:37.857Z,32.70
2019-06-01T12:57:07.282Z,29.30
2019-06-01T12:59:36.690Z,32.60
2019-06-01T13:02:06.144Z,32.60
2019-06-01T13:04:35.685Z,32.80
2019-06-01T13:07:05.035Z,35.00
2019-06-01T13:09:34.501Z,34.70
2019-06-01T13:12:03.993Z,30.90
2019-06-01T13:14:33.273Z,31.70
2019-06-01T13:17:07.587Z,31.10
2019-06-01T13:19:35.695Z,33.10
2019-06-01T13:22:05.053Z,35.30
2019-06-01T13:24:34.329Z,36.50
2019-06-01T13:27:03.731Z,35.80
2019-06-01T13:29:33.954Z,34.00
2019-06-01T13:32:03.193Z,35.20
2019-06-01T13:34:34.139Z,33.30
2019-06-01T13:37:03.386Z,33.30
2019-06-01T13:39:32.840Z,30.00
2019-06-01T13:42:02.258Z,31.90
2019-06-01T13:44:31.926Z,34.00
2019-06-01T13:47:01.192Z,34.10
2019-06-01T13:49:30.634Z,33.10
2019-06-01T13:52:00.013Z,28.70
2019-06-01T13:54:29.371Z,33.00
2019-06-01T13:56:58.666Z,31.50
2019-06-01T13:59:28.057Z,35.30
2019-06-01T14:01:57.378Z,31.80
2019-06-01T14:04:26.753Z,34.10
2019-06-01T14:06:55.946Z,31.40
2019-06-01T14:09:25.304Z,31.30
2019-06-01T14:11:55.536Z,31.90
2019-06-01T14:14:25.177Z,33.90
2019-06-01T14:16:55.669Z,34.70
2019-06-01T14:19:25.064Z,32.30
2019-06-01T14:21:54.357Z,35.70
2019-06-01T14:24:23.843Z,33.30
2019-06-01T14:26:54.382Z,31.00
2019-06-01T14:29:24.274Z,34.10
2019-06-01T14:31:55.288Z,31.10
2019-06-01T14:34:24.462Z,32.20
2019-06-01T14:36:54.577Z,31.20
2019-06-01T14:39:24.168Z,32.80
2019-06-01T14:41:53.623Z,32.20
2019-06-01T14:44:23.643Z,30.90
2019-06-01T14:47:01.670Z,32.70
2019-06-01T14:49:23.970Z,34.60
2019-06-01T14:51:53.658Z,34.90
2019-06-01T14:54:23.123Z,34.20
2019-06-01T14:56:52.360Z,33.80
2019-06-01T14:59:21.687Z,32.00
2019-06-01T15:01:52.154Z,32.60
2019-06-01T15:04:21.769Z,30.00
2019-06-01T15:06:52.295Z,35.20
2019-06-01T15:09:21.752Z,30.10
2019-06-01T15:11:52.298Z,28.90
2019-06-01T15:14:21.854Z,28.70
2019-06-01T15:16:51.703Z,28.00
2019-06-01T15:19:21.131Z,29.20
2019-06-01T15:21:50.398Z,28.60
2019-06-01T15:24:20.054Z,28.10
2019-06-01T15:26:50.440Z,28.30
2019-06-01T15:29:19.792Z,27.10
2019-06-01T15:31:49.160Z,27.80
2019-06-01T15:34:18.508Z,24.20
2019-06-01T15:36:48.120Z,26.80
2019-06-01T15:39:24.590Z,28.50
2019-06-01T15:41:48.605Z,31.20
2019-06-01T15:44:17.828Z,26.90
2019-06-01T15:46:47.305Z,26.60
2019-06-01T15:49:16.712Z,25.30
2019-06-01T15:51:45.978Z,27.90
2019-06-01T15:54:15.258Z,29.20
2019-06-01T15:56:44.908Z,30.30
2019-06-01T15:59:14.288Z,27.20
2019-06-01T16:01:43.598Z,25.90
2019-06-01T16:04:13.004Z,24.90
2019-06-01T16:06:42.253Z,25.30
2019-06-01T16:09:11.475Z,27.50
2019-06-01T16:11:40.815Z,27.00
2019-06-01T16:14:10.173Z,27.00
2019-06-01T16:16:39.501Z,28.60
2019-06-01T16:19:09.383Z,25.30
2019-06-01T16:21:38.845Z,25.90
2019-06-01T16:24:08.044Z,26.40
2019-06-01T16:26:37.317Z,26.00
2019-06-01T16:29:06.624Z,25.50
2019-06-01T16:31:36.026Z,27.00
2019-06-01T16:34:05.524Z,26.20
2019-06-01T16:36:34.783Z,25.40
2019-06-01T16:39:10.404Z,27.60
2019-06-01T16:41:39.735Z,26.10
2019-06-01T16:44:09.047Z,25.50
2019-06-01T16:46:38.357Z,27.60
2019-06-01T16:52:36.145Z,25.60
2019-06-01T16:55:24.652Z,26.20
2019-06-01T16:57:54.331Z,26.60
2019-06-01T17:00:33.331Z,26.10
2019-06-01T17:03:02.772Z,22.50
2019-06-01T17:05:32.191Z,24.20
2019-06-01T17:08:02.703Z,22.00
2019-06-01T17:10:32.238Z,22.80
2019-06-01T17:13:01.967Z,26.60
2019-06-01T17:15:43.124Z,24.10
2019-06-01T17:18:12.597Z,23.50
2019-06-01T17:20:45.684Z,25.40
2019-06-01T17:23:26.743Z,26.00
2019-06-01T17:25:45.798Z,22.50
2019-06-01T17:28:15.171Z,24.80
2019-06-01T17:30:44.416Z,23.30
2019-06-01T17:33:13.839Z,23.70
2019-06-01T17:35:43.137Z,26.30
2019-06-01T17:38:12.495Z,24.10
2019-06-01T17:40:43.368Z,25.30
2019-06-01T17:43:14.072Z,27.30
2019-06-01T17:45:43.434Z,27.10
2019-06-01T17:51:53.930Z,24.40
2019-06-01T17:54:23.232Z,24.60
2019-06-01T17:56:52.569Z,21.80
2019-06-01T17:59:21.827Z,23.70
2019-06-01T18:01:51.247Z,25.70
2019-06-01T18:04:20.792Z,23.00
2019-06-01T18:06:50.022Z,24.80
2019-06-01T18:09:19.167Z,23.50
2019-06-01T18:11:48.409Z,23.70
2019-06-01T18:40:43.892Z,23.30
2019-06-01T18:43:16.540Z,21.50
2019-06-01T18:45:46.724Z,22.30
2019-06-01T18:48:22.002Z,22.40
2019-06-01T18:50:51.306Z,22.70
2019-06-01T18:53:20.725Z,23.80
2019-06-01T18:55:50.017Z,21.70
2019-06-01T18:58:19.328Z,23.20
2019-06-01T19:00:48.627Z,23.40
2019-06-01T19:03:18.364Z,23.80
2019-06-01T19:05:47.666Z,23.90
2019-06-01T19:08:17.027Z,23.30
2019-06-01T19:10:47.523Z,22.40
2019-06-01T19:13:17.355Z,23.60
2019-06-01T19:15:46.740Z,23.00
2019-06-01T19:18:22.008Z,23.40
2019-06-01T19:20:57.203Z,22.90
2019-06-01T19:23:28.693Z,21.50
2019-06-01T19:26:03.727Z,22.50
2019-06-01T19:28:33.041Z,23.30
2019-06-01T19:31:02.358Z,22.70
2019-06-01T19:33:31.708Z,23.20
2019-06-01T19:36:01.659Z,21.20
2019-06-01T19:38:32.775Z,22.00
2019-06-01T19:41:02.054Z,21.60
2019-06-01T19:43:34.479Z,22.30
2019-06-01T19:46:03.927Z,21.10
2019-06-01T19:48:33.418Z,20.50
2019-06-01T19:51:02.942Z,21.20
2019-06-01T19:53:32.231Z,21.80
2019-06-01T19:56:01.385Z,22.10
2019-06-01T19:58:30.542Z,21.90
2019-06-01T20:00:59.956Z,21.50
2019-06-01T20:03:29.525Z,21.20
2019-06-01T20:05:59.078Z,21.50
2019-06-01T20:08:28.535Z,21.00
2019-06-01T20:10:57.798Z,21.20
2019-06-01T20:13:27.338Z,21.60
2019-06-01T20:15:56.656Z,21.80
2019-06-01T20:18:25.911Z,22.00
2019-06-01T20:20:55.191Z,21.60
2019-06-01T20:23:24.569Z,21.60
2019-06-01T20:25:54.043Z,21.50
2019-06-01T20:28:23.536Z,20.70
2019-06-01T20:30:52.862Z,21.00
2019-06-01T20:33:29.582Z,21.30
2019-06-01T20:35:58.942Z,21.40
2019-06-01T20:38:28.515Z,21.30
2019-06-01T20:40:58.033Z,21.40
2019-06-01T20:43:27.491Z,21.30
2019-06-01T20:45:57.254Z,21.20
2019-06-01T20:48:26.775Z,21.10
2019-06-01T20:50:56.189Z,21.10
2019-06-01T20:53:33.619Z,21.10
2019-06-01T20:56:03.515Z,21.10
2019-06-01T20:58:32.822Z,20.80
2019-06-01T21:01:02.212Z,20.70
2019-06-01T21:03:31.699Z,20.70
2019-06-01T21:06:00.927Z,20.70
2019-06-01T21:08:30.255Z,20.60
2019-06-01T21:10:59.866Z,20.40
2019-06-01T21:13:29.200Z,20.40
2019-06-01T21:15:59.049Z,20.40
2019-06-01T21:18:28.471Z,20.20
2019-06-01T21:20:59.058Z,20.10
2019-06-01T21:23:28.262Z,20.10
2019-06-01T21:25:58.070Z,20.10
2019-06-01T21:28:27.566Z,20.00
2019-06-01T21:30:57.957Z,19.90
2019-06-01T21:33:28.764Z,19.90
2019-06-01T21:35:58.461Z,19.80
2019-06-01T21:38:27.884Z,19.70
2019-06-01T21:40:57.468Z,19.60
2019-06-01T21:43:34.800Z,19.70
2019-06-01T21:45:58.520Z,19.60
2019-06-01T21:48:28.090Z,19.50
2019-06-01T21:50:57.500Z,19.40
2019-06-01T21:53:27.110Z,19.30
2019-06-01T21:55:56.587Z,19.30
2019-06-01T21:58:26.687Z,19.20
2019-06-01T22:00:56.543Z,19.20
2019-06-01T22:03:27.149Z,19.20
2019-06-01T22:05:56.907Z,19.10
2019-06-01T22:08:27.595Z,18.90
2019-06-01T22:10:57.205Z,18.90
2019-06-01T22:13:27.545Z,18.80
2019-06-01T22:15:58.341Z,18.80
2019-06-01T22:18:30.767Z,18.80
2019-06-01T22:21:00.195Z,18.70
2019-06-01T22:23:29.552Z,18.60
2019-06-01T22:25:59.291Z,18.50
2019-06-01T22:28:28.747Z,18.40
2019-06-01T22:30:58.713Z,18.40
2019-06-01T22:33:28.745Z,18.30
2019-06-01T22:35:58.507Z,18.30
2019-06-01T22:38:28.117Z,18.20
2019-06-01T22:40:57.550Z,18.20
2019-06-01T22:43:42.210Z,18.10
2019-06-01T22:45:58.204Z,18.10
2019-06-01T22:48:29.000Z,18.00
2019-06-01T22:51:06.422Z,18.00
2019-06-01T22:53:35.802Z,18.00
2019-06-01T22:56:05.450Z,17.90
2019-06-01T22:58:34.815Z,17.90
2019-06-01T23:01:04.357Z,17.90
2019-06-01T23:03:33.842Z,17.80
2019-06-01T23:06:03.444Z,17.70
2019-06-01T23:08:32.810Z,17.70
2019-06-01T23:11:02.290Z,17.60
2019-06-01T23:13:32.441Z,17.60
2019-06-01T23:16:01.972Z,17.50
2019-06-01T23:18:32.000Z,17.40
2019-06-01T23:21:01.590Z,17.30
2019-06-01T23:23:32.139Z,17.30
2019-06-01T23:26:02.005Z,17.30
2019-06-01T23:28:32.465Z,17.20
2019-06-01T23:31:02.279Z,17.20
2019-06-01T23:33:32.956Z,17.20
2019-06-01T23:36:02.414Z,17.10
2019-06-01T23:38:32.792Z,17.10
2019-06-01T23:41:02.340Z,17.00
2019-06-01T23:43:32.717Z,16.90
2019-06-01T23:46:02.529Z,16.90
2019-06-01T23:48:31.904Z,16.80
2019-06-01T23:51:01.549Z,16.70
2019-06-01T23:53:31.606Z,16.70
2019-06-01T23:56:01.241Z,16.60
2019-06-01T23:58:30.592Z,16.70
